createdAt,value
2018-08-28T00:00:15.910Z,101738.83
2018-08-28T00:02:45.237Z,101739.28
2018-08-28T00:05:14.522Z,101738.70
2018-08-28T00:07:43.849Z,101736.30
2018-08-28T00:10:13.994Z,101738.44
2018-08-28T00:12:43.361Z,101737.16
2018-08-28T00:15:12.760Z,101743.60
2018-08-28T00:17:43.105Z,101743.41
2018-08-28T00:20:12.438Z,101737.35
2018-08-28T00:22:41.761Z,101746.85
2018-08-28T00:25:11.128Z,101744.38
2018-08-28T00:27:40.595Z,101742.17
2018-08-28T00:30:10.045Z,101741.59
2018-08-28T00:32:39.501Z,101740.23
2018-08-28T00:35:08.845Z,101747.43
2018-08-28T00:37:38.205Z,101744.50
2018-08-28T00:40:07.491Z,101746.71
2018-08-28T00:45:24.384Z,101757.16
2018-08-28T00:47:53.742Z,101754.19
2018-08-28T00:50:25.371Z,101761.47
2018-08-28T00:52:55.494Z,101755.87
2018-08-28T00:55:24.920Z,101757.73
2018-08-28T00:57:54.334Z,101760.83
2018-08-28T01:00:23.742Z,101756.98
2018-08-28T01:02:53.066Z,101758.13
2018-08-28T01:05:23.845Z,101758.70
2018-08-28T01:07:53.857Z,101755.55
2018-08-28T01:10:23.177Z,101755.34
2018-08-28T01:12:52.515Z,101763.42
2018-08-28T01:15:21.815Z,101761.47
2018-08-28T01:17:51.154Z,101757.37
2018-08-28T01:20:20.486Z,101762.50
2018-08-28T01:22:49.782Z,101758.45
2018-08-28T01:25:19.122Z,101763.48
2018-08-28T01:27:48.443Z,101769.42
2018-08-28T01:30:21.889Z,101757.83
2018-08-28T01:32:52.404Z,101766.00
2018-08-28T01:35:21.718Z,101766.32
2018-08-28T01:37:51.031Z,101776.95
2018-08-28T01:40:20.351Z,101769.93
2018-08-28T01:42:49.689Z,101773.71
2018-08-28T01:45:19.333Z,101773.17
2018-08-28T01:47:48.662Z,101772.27
2018-08-28T01:50:18.050Z,101772.46
2018-08-28T01:52:47.877Z,101769.64
2018-08-28T01:55:17.222Z,101778.54
2018-08-28T01:57:46.528Z,101777.94
2018-08-28T02:00:15.861Z,101771.74
2018-08-28T02:02:45.214Z,101769.64
2018-08-28T02:05:14.553Z,101775.24
2018-08-28T02:07:45.214Z,101780.69
2018-08-28T02:10:14.561Z,101773.32
2018-08-28T02:12:43.889Z,101774.78
2018-08-28T02:15:13.225Z,101776.07
2018-08-28T02:17:43.506Z,101779.89
2018-08-28T02:20:12.838Z,101778.20
2018-08-28T02:22:43.102Z,101767.98
2018-08-28T02:25:12.457Z,101768.33
2018-08-28T02:27:41.648Z,101775.77
2018-08-28T02:30:10.869Z,101768.13
2018-08-28T02:32:40.092Z,101768.47
2018-08-28T02:35:09.315Z,101763.54
2018-08-28T02:37:38.543Z,101762.25
2018-08-28T02:40:07.817Z,101767.75
2018-08-28T02:42:37.028Z,101771.91
2018-08-28T02:45:06.676Z,101763.54
2018-08-28T02:47:35.895Z,101760.84
2018-08-28T02:50:05.790Z,101760.13
2018-08-28T02:52:35.532Z,101758.95
2018-08-28T02:55:04.836Z,101759.95
2018-08-28T02:57:34.937Z,101754.07
2018-08-28T03:00:04.192Z,101760.78
2018-08-28T03:02:33.460Z,101755.42
2018-08-28T03:05:02.673Z,101753.55
2018-08-28T03:07:34.059Z,101757.23
2018-08-28T03:10:04.030Z,101760.47
2018-08-28T03:12:33.253Z,101760.02
2018-08-28T03:15:02.425Z,101763.91
2018-08-28T03:17:31.690Z,101763.19
2018-08-28T03:20:00.978Z,101766.75
2018-08-28T03:22:30.320Z,101761.53
2018-08-28T03:24:59.544Z,101768.93
2018-08-28T03:27:28.795Z,101770.36
2018-08-28T03:29:58.004Z,101768.16
2018-08-28T03:32:27.244Z,101773.52
2018-08-28T03:34:56.459Z,101770.86
2018-08-28T03:37:25.683Z,101770.94
2018-08-28T03:39:54.942Z,101782.09
2018-08-28T03:42:24.248Z,101776.59
2018-08-28T03:44:53.550Z,101779.63
2018-08-28T03:47:22.734Z,101789.90
2018-08-28T03:49:51.950Z,101785.14
2018-08-28T03:52:21.244Z,101788.67
2018-08-28T03:54:50.459Z,101794.29
2018-08-28T03:57:19.659Z,101793.20
2018-08-28T03:59:48.888Z,101793.69
2018-08-28T04:02:19.336Z,101795.48
2018-08-28T04:04:48.592Z,101793.02
2018-08-28T04:07:18.490Z,101797.47
2018-08-28T04:09:47.699Z,101800.86
2018-08-28T04:12:16.931Z,101804.00
2018-08-28T04:14:46.506Z,101808.77
2018-08-28T04:17:15.936Z,101801.74
2018-08-28T04:19:45.178Z,101801.17
2018-08-28T04:22:15.325Z,101805.93
2018-08-28T04:24:44.804Z,101802.40
2018-08-28T04:27:14.056Z,101802.63
2018-08-28T04:29:43.295Z,101804.38
2018-08-28T04:32:12.483Z,101809.92
2018-08-28T04:34:41.781Z,101812.95
2018-08-28T04:37:10.989Z,101817.59
2018-08-28T04:39:40.259Z,101818.31
2018-08-28T04:42:09.480Z,101814.70
2018-08-28T04:44:38.676Z,101813.41
2018-08-28T04:47:07.959Z,101818.31
2018-08-28T04:49:37.151Z,101822.53
2018-08-28T04:52:06.383Z,101822.48
2018-08-28T04:54:35.597Z,101825.22
2018-08-28T04:57:04.928Z,101824.95
2018-08-28T04:59:34.189Z,101822.19
2018-08-28T05:02:04.046Z,101823.33
2018-08-28T05:04:33.271Z,101836.95
2018-08-28T05:07:02.535Z,101833.80
2018-08-28T05:09:31.745Z,101836.38
2018-08-28T05:12:01.991Z,101837.21
2018-08-28T05:14:31.215Z,101838.50
2018-08-28T05:17:00.486Z,101841.89
2018-08-28T05:19:29.716Z,101843.09
2018-08-28T05:22:01.139Z,101845.76
2018-08-28T05:24:30.395Z,101845.88
2018-08-28T05:26:59.599Z,101846.70
2018-08-28T05:29:28.817Z,101853.73
2018-08-28T05:31:58.077Z,101851.75
2018-08-28T05:34:27.307Z,101857.95
2018-08-28T05:36:56.588Z,101858.52
2018-08-28T05:39:25.800Z,101853.05
2018-08-28T05:41:55.032Z,101858.05
2018-08-28T05:44:25.196Z,101857.64
2018-08-28T05:46:54.485Z,101859.05
2018-08-28T05:49:23.770Z,101858.13
2018-08-28T05:51:52.979Z,101866.67
2018-08-28T05:54:22.211Z,101861.77
2018-08-28T05:56:52.639Z,101870.24
2018-08-28T05:59:21.928Z,101862.03
2018-08-28T06:01:51.123Z,101863.06
2018-08-28T06:04:20.348Z,101867.31
2018-08-28T06:06:49.563Z,101866.17
2018-08-28T06:09:19.252Z,101873.77
2018-08-28T06:11:48.470Z,101875.62
2018-08-28T06:14:18.231Z,101873.92
2018-08-28T06:16:47.652Z,101874.11
2018-08-28T06:19:17.189Z,101870.50
2018-08-28T06:21:46.526Z,101874.95
2018-08-28T06:24:15.755Z,101879.58
2018-08-28T06:26:44.956Z,101879.73
2018-08-28T06:29:14.179Z,101880.79
2018-08-28T06:33:21.840Z,101888.13
2018-08-28T06:35:51.099Z,101890.51
2018-08-28T06:38:20.309Z,101899.47
2018-08-28T06:40:49.630Z,101900.04
2018-08-28T06:43:19.609Z,101896.09
2018-08-28T06:45:48.787Z,101894.00
2018-08-28T06:48:18.021Z,101895.41
2018-08-28T06:50:49.103Z,101902.42
2018-08-28T06:53:18.299Z,101899.59
2018-08-28T06:55:47.526Z,101906.34
2018-08-28T06:58:16.935Z,101907.02
2018-08-28T07:00:46.171Z,101908.11
2018-08-28T07:03:15.422Z,101907.00
2018-08-28T07:05:44.599Z,101911.25
2018-08-28T07:08:13.886Z,101914.44
2018-08-28T07:10:43.164Z,101913.46
2018-08-28T07:13:13.987Z,101916.89
2018-08-28T07:15:43.249Z,101923.02
2018-08-28T07:18:12.458Z,101918.59
2018-08-28T07:20:41.691Z,101923.91
2018-08-28T07:23:11.467Z,101918.58
2018-08-28T07:25:40.799Z,101925.96
2018-08-28T07:28:09.964Z,101919.61
2018-08-28T07:30:39.178Z,101922.66
2018-08-28T07:33:08.918Z,101927.32
2018-08-28T07:35:38.192Z,101928.70
2018-08-28T07:38:07.428Z,101931.29
2018-08-28T07:40:36.615Z,101936.98
2018-08-28T07:43:05.876Z,101937.41
2018-08-28T07:45:35.098Z,101942.11
2018-08-28T07:48:04.349Z,101943.34
2018-08-28T07:50:33.529Z,101939.17
2018-08-28T07:53:02.817Z,101942.44
2018-08-28T07:55:32.016Z,101939.27
2018-08-28T07:58:01.857Z,101940.87
2018-08-28T08:00:31.073Z,101940.94
2018-08-28T08:03:00.237Z,101936.16
2018-08-28T08:05:29.511Z,101937.12
2018-08-28T08:07:58.727Z,101940.68
2018-08-28T08:10:27.949Z,101944.93
2018-08-28T08:12:57.173Z,101942.55
2018-08-28T08:15:26.420Z,101948.55
2018-08-28T08:17:55.644Z,101949.75
2018-08-28T08:20:24.880Z,101949.27
2018-08-28T08:22:54.090Z,101953.64
2018-08-28T08:25:23.349Z,101957.07
2018-08-28T08:27:52.541Z,101957.73
2018-08-28T08:30:21.752Z,101955.95
2018-08-28T08:32:51.115Z,101953.64
2018-08-28T08:35:20.409Z,101953.89
2018-08-28T08:37:49.951Z,101956.95
2018-08-28T08:40:19.167Z,101953.38
2018-08-28T08:42:48.321Z,101946.09
2018-08-28T08:45:17.648Z,101955.89
2018-08-28T08:47:46.872Z,101951.07
2018-08-28T08:50:16.071Z,101951.69
2018-08-28T08:52:45.571Z,101950.89
2018-08-28T08:55:14.761Z,101947.92
2018-08-28T08:57:44.987Z,101948.17
2018-08-28T09:00:14.188Z,101949.33
2018-08-28T09:02:43.409Z,101950.19
2018-08-28T09:05:12.642Z,101951.81
2018-08-28T09:07:41.865Z,101953.83
2018-08-28T09:10:11.080Z,101954.91
2018-08-28T09:12:40.279Z,101953.44
2018-08-28T09:15:09.510Z,101945.58
2018-08-28T09:17:39.258Z,101938.34
2018-08-28T09:20:08.445Z,101946.73
2018-08-28T09:22:37.897Z,101938.47
2018-08-28T09:25:07.123Z,101938.64
2018-08-28T09:27:36.469Z,101942.59
2018-08-28T09:30:06.000Z,101934.23
2018-08-28T09:32:35.160Z,101929.50
2018-08-28T09:35:04.503Z,101931.58
2018-08-28T09:37:34.055Z,101924.83
2018-08-28T09:40:03.975Z,101925.77
2018-08-28T09:42:33.200Z,101931.98
2018-08-28T09:45:02.380Z,101931.26
2018-08-28T09:47:31.610Z,101924.56
2018-08-28T09:50:00.881Z,101933.22
2018-08-28T09:52:30.098Z,101933.97
2018-08-28T09:54:59.309Z,101925.37
2018-08-28T09:57:28.527Z,101928.75
2018-08-28T09:59:57.743Z,101923.61
2018-08-28T10:02:26.991Z,101922.86
2018-08-28T10:04:56.341Z,101921.27
2018-08-28T10:07:25.437Z,101916.96
2018-08-28T10:09:54.640Z,101920.33
2018-08-28T10:12:23.843Z,101919.66
2018-08-28T10:14:53.055Z,101913.48
2018-08-28T10:17:22.802Z,101918.65
2018-08-28T10:19:51.980Z,101917.64
2018-08-28T10:22:21.206Z,101914.28
2018-08-28T10:24:50.423Z,101916.73
2018-08-28T10:27:19.649Z,101918.45
2018-08-28T10:29:48.900Z,101912.70
2018-08-28T10:32:18.078Z,101911.60
2018-08-28T10:34:48.335Z,101913.04
2018-08-28T10:37:17.553Z,101910.56
2018-08-28T10:39:46.945Z,101905.16
2018-08-28T10:42:16.229Z,101906.85
2018-08-28T10:44:45.463Z,101919.27
2018-08-28T10:47:15.380Z,101914.86
2018-08-28T10:49:44.622Z,101912.82
2018-08-28T10:52:13.808Z,101913.93
2018-08-28T10:54:43.092Z,101912.53
2018-08-28T10:57:13.200Z,101906.53
2018-08-28T10:59:42.397Z,101903.47
2018-08-28T11:02:11.640Z,101907.58
2018-08-28T11:04:40.884Z,101902.23
2018-08-28T11:07:10.972Z,101899.73
2018-08-28T11:09:40.747Z,101897.38
2018-08-28T11:12:09.938Z,101898.83
2018-08-28T11:14:39.219Z,101902.80
2018-08-28T11:17:08.435Z,101900.42
2018-08-28T11:19:37.644Z,101907.49
2018-08-28T11:22:06.814Z,101906.02
2018-08-28T11:24:36.065Z,101908.08
2018-08-28T11:27:05.255Z,101905.70
2018-08-28T11:29:34.549Z,101901.80
2018-08-28T11:32:03.809Z,101904.01
2018-08-28T11:34:33.260Z,101900.05
2018-08-28T11:37:02.466Z,101904.41
2018-08-28T11:39:31.666Z,101905.70
2018-08-28T11:42:00.914Z,101904.09
2018-08-28T11:44:30.148Z,101904.64
2018-08-28T11:46:59.445Z,101903.04
2018-08-28T11:49:28.592Z,101898.27
2018-08-28T11:51:57.817Z,101902.81
2018-08-28T11:54:27.060Z,101893.73
2018-08-28T11:56:56.304Z,101898.68
2018-08-28T11:59:25.732Z,101906.11
2018-08-28T12:01:55.678Z,101900.33
2018-08-28T12:04:24.881Z,101902.91
2018-08-28T12:06:54.143Z,101908.59
2018-08-28T12:09:23.319Z,101906.38
2018-08-28T12:11:53.446Z,101905.63
2018-08-28T12:14:22.685Z,101905.36
2018-08-28T12:16:51.958Z,101902.90
2018-08-28T12:19:21.155Z,101904.41
2018-08-28T12:21:50.362Z,101898.32
2018-08-28T12:24:19.723Z,101889.98
2018-08-28T12:26:49.129Z,101896.25
2018-08-28T12:29:18.187Z,101891.82
2018-08-28T12:31:47.463Z,101899.00
2018-08-28T12:34:16.704Z,101891.78
2018-08-28T12:36:46.981Z,101892.20
2018-08-28T12:39:16.074Z,101889.20
2018-08-28T12:41:45.282Z,101891.03
2018-08-28T12:44:14.523Z,101890.91
2018-08-28T12:46:43.751Z,101896.62
2018-08-28T12:49:13.962Z,101892.84
2018-08-28T12:51:43.175Z,101896.38
2018-08-28T12:54:12.409Z,101887.92
2018-08-28T12:56:41.603Z,101889.21
2018-08-28T12:59:10.846Z,101891.19
2018-08-28T13:01:40.063Z,101891.75
2018-08-28T13:04:09.271Z,101887.02
2018-08-28T13:06:38.550Z,101887.57
2018-08-28T13:09:07.775Z,101881.55
2018-08-28T13:11:37.101Z,101875.31
2018-08-28T13:14:06.280Z,101869.30
2018-08-28T13:16:35.515Z,101868.81
2018-08-28T13:19:04.851Z,101864.56
2018-08-28T13:21:34.118Z,101860.08
2018-08-28T13:24:03.343Z,101857.23
2018-08-28T13:26:32.587Z,101858.00
2018-08-28T13:29:01.786Z,101858.09
2018-08-28T13:31:31.042Z,101853.13
2018-08-28T13:34:00.293Z,101859.87
2018-08-28T13:36:29.536Z,101854.15
2018-08-28T13:38:58.996Z,101855.94
2018-08-28T13:41:28.207Z,101853.22
2018-08-28T13:43:57.491Z,101855.30
2018-08-28T13:46:26.750Z,101856.06
2018-08-28T13:48:55.987Z,101860.30
2018-08-28T13:51:25.763Z,101861.76
2018-08-28T13:53:55.064Z,101859.33
2018-08-28T13:56:24.374Z,101858.67
2018-08-28T13:58:53.620Z,101849.63
2018-08-28T14:01:22.797Z,101845.33
2018-08-28T14:03:52.020Z,101847.84
2018-08-28T14:06:21.241Z,101843.13
2018-08-28T14:08:50.432Z,101847.52
2018-08-28T14:11:19.627Z,101843.64
2018-08-28T14:13:48.908Z,101847.14
2018-08-28T14:16:18.069Z,101841.63
2018-08-28T14:18:47.325Z,101843.11
2018-08-28T14:21:16.650Z,101839.47
2018-08-28T14:23:45.930Z,101840.36
2018-08-28T14:26:15.132Z,101839.11
2018-08-28T14:28:44.727Z,101833.44
2018-08-28T14:31:13.892Z,101834.03
2018-08-28T14:33:43.117Z,101826.00
2018-08-28T14:36:12.370Z,101832.88
2018-08-28T14:38:41.614Z,101831.83
2018-08-28T14:41:10.864Z,101825.98
2018-08-28T14:43:40.108Z,101821.01
2018-08-28T14:46:09.616Z,101812.25
2018-08-28T14:48:38.845Z,101812.50
2018-08-28T14:51:08.399Z,101809.71
2018-08-28T14:53:38.462Z,101814.67
2018-08-28T14:56:07.682Z,101815.94
2018-08-28T14:58:36.915Z,101814.28
2018-08-28T15:01:06.138Z,101814.52
2018-08-28T15:03:35.419Z,101809.28
2018-08-28T15:06:04.627Z,101810.32
2018-08-28T15:08:33.850Z,101808.58
2018-08-28T15:11:03.099Z,101810.52
2018-08-28T15:13:32.739Z,101811.05
2018-08-28T15:16:01.947Z,101812.98
2018-08-28T15:18:31.223Z,101817.95
2018-08-28T15:21:01.439Z,101816.62
2018-08-28T15:23:30.664Z,101817.45
2018-08-28T15:25:59.911Z,101810.05
2018-08-28T15:28:29.134Z,101805.66
2018-08-28T15:30:58.371Z,101801.36
2018-08-28T15:33:27.572Z,101792.91
2018-08-28T15:35:56.807Z,101791.33
2018-08-28T15:38:26.613Z,101791.17
2018-08-28T15:40:56.157Z,101795.67
2018-08-28T15:43:25.356Z,101780.69
2018-08-28T15:45:54.584Z,101779.40
2018-08-28T15:48:23.804Z,101776.78
2018-08-28T15:50:53.663Z,101778.56
2018-08-28T15:53:23.158Z,101777.45
2018-08-28T15:55:52.375Z,101776.06
2018-08-28T15:58:23.055Z,101779.59
2018-08-28T16:00:52.281Z,101771.75
2018-08-28T16:03:23.370Z,101772.81
2018-08-28T16:05:52.820Z,101765.41
2018-08-28T16:08:23.254Z,101763.95
2018-08-28T16:10:53.483Z,101758.52
2018-08-28T16:13:22.713Z,101754.22
2018-08-28T16:15:51.935Z,101744.12
2018-08-28T16:18:21.168Z,101744.88
2018-08-28T16:20:50.394Z,101745.55
2018-08-28T16:23:24.879Z,101746.33
2018-08-28T16:25:54.982Z,101744.34
2018-08-28T16:28:24.253Z,101738.08
2018-08-28T16:30:53.429Z,101741.33
2018-08-28T16:33:22.641Z,101738.70
2018-08-28T16:35:52.034Z,101737.58
2018-08-28T16:38:21.206Z,101732.02
2018-08-28T16:40:50.422Z,101727.27
2018-08-28T16:43:19.649Z,101728.05
2018-08-28T16:45:48.875Z,101731.13
2018-08-28T16:48:18.134Z,101721.80
2018-08-28T16:50:47.642Z,101717.87
2018-08-28T16:53:16.848Z,101716.27
2018-08-28T16:55:46.131Z,101711.14
2018-08-28T16:58:15.318Z,101698.72
2018-08-28T17:00:44.538Z,101704.33
2018-08-28T17:03:13.795Z,101698.91
2018-08-28T17:05:43.026Z,101697.69
2018-08-28T17:08:12.193Z,101694.31
2018-08-28T17:10:41.482Z,101696.45
2018-08-28T17:13:11.370Z,101691.71
2018-08-28T17:15:40.631Z,101688.01
2018-08-28T17:18:12.079Z,101687.13
2018-08-28T17:20:41.343Z,101682.41
2018-08-28T17:23:10.567Z,101676.47
2018-08-28T17:25:39.826Z,101679.55
2018-08-28T17:28:09.038Z,101682.56
2018-08-28T17:30:38.772Z,101682.25
2018-08-28T17:33:08.061Z,101687.44
2018-08-28T17:35:37.244Z,101692.14
2018-08-28T17:38:06.996Z,101685.38
2018-08-28T17:40:36.297Z,101682.34
2018-08-28T17:43:06.527Z,101681.92
2018-08-28T17:45:35.735Z,101682.88
2018-08-28T17:48:05.125Z,101686.59
2018-08-28T17:50:34.386Z,101687.47
2018-08-28T17:53:04.219Z,101689.89
2018-08-28T17:55:35.046Z,101685.50
2018-08-28T17:58:04.803Z,101674.11
2018-08-28T18:00:34.040Z,101680.94
2018-08-28T18:03:03.376Z,101678.89
2018-08-28T18:05:32.643Z,101682.24
2018-08-28T18:08:01.884Z,101680.04
2018-08-28T18:10:31.160Z,101681.23
2018-08-28T18:13:00.403Z,101679.81
2018-08-28T18:15:29.713Z,101676.09
2018-08-28T18:17:58.954Z,101676.63
2018-08-28T18:20:28.223Z,101677.16
2018-08-28T18:22:57.445Z,101677.81
2018-08-28T18:25:27.174Z,101678.03
2018-08-28T18:27:56.405Z,101670.63
2018-08-28T18:30:25.637Z,101669.54
2018-08-28T18:32:54.843Z,101676.28
2018-08-28T18:35:24.068Z,101676.70
2018-08-28T18:37:53.303Z,101674.70
2018-08-28T18:40:22.545Z,101673.68
2018-08-28T18:42:51.928Z,101674.28
2018-08-28T18:45:21.190Z,101679.88
2018-08-28T18:47:52.554Z,101676.13
2018-08-28T18:50:21.801Z,101673.67
2018-08-28T18:52:51.039Z,101674.88
2018-08-28T18:55:20.292Z,101672.18
2018-08-28T18:57:50.478Z,101669.62
2018-08-28T19:00:19.764Z,101671.64
2018-08-28T19:02:49.036Z,101668.71
2018-08-28T19:05:18.254Z,101668.67
2018-08-28T19:07:47.571Z,101668.67
2018-08-28T19:10:16.748Z,101670.58
2018-08-28T19:12:46.145Z,101666.93
2018-08-28T19:15:15.435Z,101665.76
2018-08-28T19:17:45.303Z,101661.53
2018-08-28T19:20:14.556Z,101669.16
2018-08-28T19:22:43.748Z,101667.75
2018-08-28T19:25:13.814Z,101663.27
2018-08-28T19:27:43.120Z,101659.74
2018-08-28T19:30:12.347Z,101665.16
2018-08-28T19:32:41.628Z,101662.09
2018-08-28T19:35:11.145Z,101662.21
2018-08-28T19:37:40.412Z,101662.09
2018-08-28T19:40:09.691Z,101662.44
2018-08-28T19:42:38.927Z,101655.95
2018-08-28T19:45:08.735Z,101652.91
2018-08-28T19:47:37.964Z,101648.42
2018-08-28T19:50:07.315Z,101647.72
2018-08-28T19:52:36.599Z,101640.39
2018-08-28T19:55:05.871Z,101642.03
2018-08-28T19:57:35.107Z,101641.33
2018-08-28T20:00:04.696Z,101642.12
2018-08-28T20:02:33.956Z,101643.64
2018-08-28T20:05:03.876Z,101642.93
2018-08-28T20:07:33.235Z,101637.77
2018-08-28T20:10:04.516Z,101640.20
2018-08-28T20:12:34.459Z,101634.77
2018-08-28T20:15:04.390Z,101632.78
2018-08-28T20:17:35.684Z,101632.53
2018-08-28T20:20:05.129Z,101641.91
2018-08-28T20:22:34.420Z,101632.83
2018-08-28T20:25:04.435Z,101626.70
2018-08-28T20:27:33.680Z,101632.36
2018-08-28T20:30:02.965Z,101630.70
2018-08-28T20:32:33.728Z,101632.87
2018-08-28T20:35:03.011Z,101628.20
2018-08-28T20:37:32.990Z,101626.52
2018-08-28T20:40:02.265Z,101630.23
2018-08-28T20:42:31.521Z,101622.48
2018-08-28T20:45:01.562Z,101624.39
2018-08-28T20:47:30.811Z,101623.30
2018-08-28T20:50:02.830Z,101617.44
2018-08-28T20:52:32.070Z,101615.75
2018-08-28T20:55:01.323Z,101608.45
2018-08-28T20:57:31.179Z,101600.22
2018-08-28T21:00:01.305Z,101607.11
2018-08-28T21:02:30.533Z,101602.27
2018-08-28T21:04:59.876Z,101608.59
2018-08-28T21:07:29.154Z,101602.92
2018-08-28T21:09:58.423Z,101604.19
2018-08-28T21:12:27.710Z,101600.64
2018-08-28T21:14:57.771Z,101608.38
2018-08-28T21:17:27.056Z,101602.59
2018-08-28T21:19:56.499Z,101601.04
2018-08-28T21:22:25.773Z,101597.98
2018-08-28T21:24:55.014Z,101589.49
2018-08-28T21:27:24.295Z,101593.48
2018-08-28T21:29:53.782Z,101589.81
2018-08-28T21:32:23.229Z,101586.26
2018-08-28T21:34:52.464Z,101589.98
2018-08-28T21:37:21.722Z,101581.33
2018-08-28T21:39:50.982Z,101578.95
2018-08-28T21:42:20.756Z,101573.98
2018-08-28T21:44:50.552Z,101575.85
2018-08-28T21:47:19.804Z,101571.27
2018-08-28T21:49:49.056Z,101573.13
2018-08-28T21:52:18.347Z,101569.31
2018-08-28T21:54:47.670Z,101567.77
2018-08-28T21:57:16.880Z,101570.46
2018-08-28T21:59:46.123Z,101567.82
2018-08-28T22:02:15.354Z,101567.56
2018-08-28T22:04:44.840Z,101564.34
2018-08-28T22:07:20.131Z,101557.50
2018-08-28T22:09:51.431Z,101560.19
2018-08-28T22:12:20.671Z,101558.06
2018-08-28T22:14:49.929Z,101556.52
2018-08-28T22:17:19.155Z,101554.63
2018-08-28T22:19:48.415Z,101547.20
2018-08-28T22:22:17.802Z,101552.92
2018-08-28T22:24:47.086Z,101547.20
2018-08-28T22:27:16.334Z,101548.08
2018-08-28T22:29:45.571Z,101546.00
2018-08-28T22:32:15.826Z,101548.05
2018-08-28T22:34:45.065Z,101548.88
2018-08-28T22:37:14.280Z,101542.06
2018-08-28T22:39:43.757Z,101542.28
2018-08-28T22:42:12.974Z,101537.70
2018-08-28T22:44:42.272Z,101533.66
2018-08-28T22:47:11.463Z,101530.58
2018-08-28T22:49:40.800Z,101530.52
2018-08-28T22:52:10.292Z,101528.95
2018-08-28T22:54:39.562Z,101528.39
2018-08-28T22:57:08.801Z,101522.44
2018-08-28T22:59:38.591Z,101526.95
2018-08-28T23:02:07.892Z,101526.80
2018-08-28T23:04:37.193Z,101520.20
2018-08-28T23:07:07.610Z,101520.95
2018-08-28T23:09:36.888Z,101518.08
2018-08-28T23:12:07.146Z,101518.37
2018-08-28T23:14:36.411Z,101514.93
2018-08-28T23:17:05.707Z,101512.92
2018-08-28T23:19:35.149Z,101509.44
2018-08-28T23:22:05.272Z,101502.09
2018-08-28T23:24:34.548Z,101507.98
2018-08-28T23:27:03.871Z,101505.30
2018-08-28T23:29:33.199Z,101505.79
2018-08-28T23:32:02.470Z,101502.50
2018-08-28T23:34:31.702Z,101498.37
2018-08-28T23:37:02.016Z,101496.78
2018-08-28T23:39:31.346Z,101497.69
2018-08-28T23:42:00.625Z,101486.97
2018-08-28T23:44:29.919Z,101485.80
2018-08-28T23:46:59.198Z,101484.80
2018-08-28T23:49:28.535Z,101487.72
2018-08-28T23:51:57.795Z,101483.16
2018-08-28T23:54:27.076Z,101476.84
2018-08-28T23:56:56.329Z,101478.23
2018-08-28T23:59:25.903Z,101476.67
